createdAt,value
2019-01-09T00:02:10.936Z,99.90
2019-01-09T00:04:41.430Z,99.90
2019-01-09T00:07:11.838Z,99.90
2019-01-09T00:09:42.282Z,99.90
2019-01-09T00:12:12.809Z,99.90
2019-01-09T00:14:43.306Z,99.90
2019-01-09T00:17:13.871Z,99.90
2019-01-09T00:19:44.458Z,99.90
2019-01-09T00:22:15.054Z,99.90
2019-01-09T00:24:45.561Z,99.90
2019-01-09T00:27:16.117Z,99.90
2019-01-09T00:29:46.632Z,99.90
2019-01-09T00:32:18.482Z,99.90
2019-01-09T00:34:50.045Z,99.90
2019-01-09T00:37:20.563Z,99.90
2019-01-09T00:39:50.970Z,99.90
2019-01-09T00:42:21.504Z,99.90
2019-01-09T00:44:53.720Z,99.90
2019-01-09T00:47:24.367Z,99.90
2019-01-09T00:49:54.963Z,99.90
2019-01-09T00:52:25.609Z,99.90
2019-01-09T00:54:56.068Z,99.90
2019-01-09T00:57:26.712Z,99.90
2019-01-09T00:59:57.261Z,99.90
2019-01-09T01:03:06.763Z,99.90
2019-01-09T01:06:11.008Z,99.90
2019-01-09T01:09:09.832Z,99.90
2019-01-09T01:12:27.428Z,99.90
2019-01-09T01:15:27.491Z,99.90
2019-01-09T01:18:48.180Z,99.90
2019-01-09T01:21:32.909Z,99.90
2019-01-09T01:24:33.613Z,99.90
2019-01-09T01:27:12.843Z,99.90
2019-01-09T01:29:58.551Z,99.90
2019-01-09T01:32:56.355Z,99.90
2019-01-09T01:36:11.780Z,99.90
2019-01-09T01:39:23.836Z,99.90
2019-01-09T01:42:21.029Z,99.90
2019-01-09T01:45:26.983Z,99.90
2019-01-09T01:48:40.571Z,99.90
2019-01-09T01:51:26.310Z,99.90
2019-01-09T01:54:41.197Z,99.90
2019-01-09T01:57:28.307Z,99.90
2019-01-09T02:00:56.016Z,99.90
2019-01-09T02:03:49.738Z,99.90
2019-01-09T02:06:44.570Z,99.90
2019-01-09T02:09:47.547Z,99.90
2019-01-09T02:12:43.736Z,99.90
2019-01-09T02:15:40.319Z,99.90
2019-01-09T02:18:31.963Z,99.90
2019-01-09T02:21:44.086Z,99.90
2019-01-09T02:24:51.961Z,99.90
2019-01-09T02:28:22.412Z,99.90
2019-01-09T02:31:22.847Z,99.90
2019-01-09T02:33:53.683Z,99.90
2019-01-09T02:36:24.268Z,99.90
2019-01-09T02:38:54.844Z,99.90
2019-01-09T02:41:25.431Z,99.90
2019-01-09T02:43:56.046Z,99.90
2019-01-09T02:46:26.705Z,99.90
2019-01-09T02:48:57.280Z,99.90
2019-01-09T02:51:27.909Z,99.90
2019-01-09T02:53:58.423Z,99.90
2019-01-09T02:56:29.029Z,99.90
2019-01-09T02:58:59.654Z,99.90
2019-01-09T03:01:30.136Z,99.90
2019-01-09T03:04:00.697Z,99.90
2019-01-09T03:06:31.362Z,99.90
2019-01-09T03:09:01.980Z,99.90
2019-01-09T03:11:32.625Z,99.90
2019-01-09T03:14:03.200Z,99.90
2019-01-09T03:16:33.759Z,99.90
2019-01-09T03:19:05.934Z,99.90
2019-01-09T03:21:36.500Z,99.90
2019-01-09T03:24:07.114Z,99.90
2019-01-09T03:26:37.611Z,99.90
2019-01-09T03:29:08.238Z,99.90
2019-01-09T03:31:41.846Z,99.90
2019-01-09T03:34:12.330Z,99.90
2019-01-09T03:36:42.928Z,99.90
2019-01-09T03:39:13.573Z,99.90
2019-01-09T03:41:44.201Z,99.90
2019-01-09T03:44:14.837Z,99.90
2019-01-09T03:46:45.482Z,99.90
2019-01-09T03:49:15.987Z,99.90
2019-01-09T03:51:46.548Z,99.90
2019-01-09T03:54:17.209Z,99.90
2019-01-09T03:56:47.797Z,99.90
2019-01-09T03:59:18.432Z,99.90
2019-01-09T04:01:50.031Z,99.90
2019-01-09T04:04:20.514Z,99.90
2019-01-09T04:06:51.081Z,99.90
2019-01-09T04:09:21.767Z,99.90
2019-01-09T04:11:55.473Z,99.90
2019-01-09T04:14:26.090Z,99.90
2019-01-09T04:16:56.570Z,99.90
2019-01-09T04:19:27.103Z,99.90
2019-01-09T04:21:57.744Z,99.90
2019-01-09T04:24:28.327Z,99.90
2019-01-09T04:26:58.930Z,99.90
2019-01-09T04:29:29.536Z,99.90
2019-01-09T04:32:00.074Z,99.90
2019-01-09T04:34:30.700Z,99.90
2019-01-09T04:37:01.322Z,99.90
2019-01-09T04:39:32.008Z,99.90
2019-01-09T04:42:02.547Z,99.90
2019-01-09T04:44:33.167Z,99.90
2019-01-09T04:47:03.763Z,99.90
2019-01-09T04:49:34.326Z,99.90
2019-01-09T04:52:04.924Z,99.90
2019-01-09T04:54:35.509Z,99.90
2019-01-09T04:57:06.114Z,99.90
2019-01-09T04:59:36.730Z,99.90
2019-01-09T05:02:07.217Z,99.90
2019-01-09T05:04:37.864Z,99.90
2019-01-09T05:07:08.340Z,99.90
2019-01-09T05:09:39.745Z,99.90
2019-01-09T05:12:10.341Z,99.90
2019-01-09T05:14:40.999Z,99.90
2019-01-09T05:17:11.635Z,99.90
2019-01-09T05:19:42.350Z,99.90
2019-01-09T05:22:12.966Z,99.90
2019-01-09T05:24:45.567Z,99.90
2019-01-09T05:27:15.829Z,99.90
2019-01-09T05:29:46.485Z,99.90
2019-01-09T05:32:17.023Z,99.90
2019-01-09T05:34:47.617Z,99.90
2019-01-09T05:37:18.134Z,99.90
2019-01-09T05:39:48.700Z,99.90
2019-01-09T05:42:19.185Z,99.90
2019-01-09T05:44:49.781Z,99.90
2019-01-09T05:47:20.545Z,99.90
2019-01-09T05:49:51.015Z,99.90
2019-01-09T05:52:21.831Z,99.90
2019-01-09T05:54:52.456Z,99.90
2019-01-09T05:57:23.113Z,99.90
2019-01-09T05:59:53.578Z,99.90
2019-01-09T06:02:24.064Z,99.90
2019-01-09T06:04:54.590Z,99.90
2019-01-09T06:07:25.208Z,99.90
2019-01-09T06:09:55.825Z,99.90
2019-01-09T06:12:26.470Z,99.90
2019-01-09T06:14:56.986Z,99.90
2019-01-09T06:17:27.612Z,99.90
2019-01-09T06:19:58.228Z,99.90
2019-01-09T06:22:28.895Z,99.90
2019-01-09T06:24:59.581Z,99.90
2019-01-09T06:27:30.216Z,99.90
2019-01-09T06:30:00.692Z,99.90
2019-01-09T06:32:31.319Z,99.90
2019-01-09T06:35:01.906Z,99.90
2019-01-09T06:37:32.541Z,99.90
2019-01-09T06:40:03.127Z,99.90
2019-01-09T06:42:33.803Z,99.90
2019-01-09T06:45:04.430Z,99.90
2019-01-09T06:47:35.126Z,99.90
2019-01-09T06:50:09.722Z,99.90
2019-01-09T06:52:40.279Z,99.90
2019-01-09T06:55:10.895Z,99.90
2019-01-09T06:57:41.411Z,99.90
2019-01-09T07:00:12.027Z,99.90
2019-01-09T07:02:42.603Z,99.90
2019-01-09T07:05:13.203Z,99.90
2019-01-09T07:07:43.785Z,99.90
2019-01-09T07:10:14.372Z,99.90
2019-01-09T07:13:04.162Z,99.90
2019-01-09T07:15:34.629Z,99.90
2019-01-09T07:18:05.273Z,99.90
2019-01-09T07:20:35.971Z,99.90
2019-01-09T07:23:06.637Z,99.90
2019-01-09T07:25:37.253Z,99.90
2019-01-09T07:28:07.879Z,99.90
2019-01-09T07:30:38.546Z,99.90
2019-01-09T07:33:09.130Z,99.90
2019-01-09T07:35:39.770Z,99.90
2019-01-09T07:38:10.784Z,99.90
2019-01-09T07:40:41.280Z,99.90
2019-01-09T07:43:11.883Z,99.90
2019-01-09T07:45:42.502Z,99.90
2019-01-09T07:48:13.128Z,99.90
2019-01-09T07:50:43.744Z,99.90
2019-01-09T07:53:14.381Z,99.90
2019-01-09T07:55:45.026Z,99.90
2019-01-09T07:58:15.781Z,99.90
2019-01-09T08:00:46.335Z,99.90
2019-01-09T08:03:16.940Z,99.90
2019-01-09T08:05:47.704Z,99.90
2019-01-09T08:08:21.632Z,99.90
2019-01-09T08:10:52.165Z,99.90
2019-01-09T08:13:22.792Z,99.90
2019-01-09T08:15:53.377Z,99.90
2019-01-09T08:18:23.893Z,99.90
2019-01-09T08:20:54.430Z,99.90
2019-01-09T08:23:25.055Z,99.90
2019-01-09T08:25:55.721Z,99.90
2019-01-09T08:28:26.358Z,99.90
2019-01-09T08:30:56.857Z,99.90
2019-01-09T08:33:27.310Z,99.90
2019-01-09T08:35:57.932Z,99.90
2019-01-09T08:38:28.513Z,99.90
2019-01-09T08:40:59.164Z,99.90
2019-01-09T08:43:29.694Z,99.90
2019-01-09T08:46:00.180Z,99.90
2019-01-09T08:48:30.757Z,99.90
2019-01-09T08:51:01.433Z,99.90
2019-01-09T08:53:32.100Z,99.90
2019-01-09T08:56:02.745Z,99.90
2019-01-09T08:58:33.342Z,99.90
2019-01-09T09:01:03.907Z,99.90
2019-01-09T09:03:34.556Z,99.90
2019-01-09T09:06:05.149Z,99.90
2019-01-09T09:08:35.735Z,99.90
2019-01-09T09:11:06.321Z,99.90
2019-01-09T09:13:38.918Z,99.90
2019-01-09T09:16:10.714Z,99.90
2019-01-09T09:18:41.397Z,99.90
2019-01-09T09:21:12.105Z,99.90
2019-01-09T09:23:42.602Z,99.90
2019-01-09T09:26:13.221Z,99.90
2019-01-09T09:28:45.165Z,99.90
2019-01-09T09:31:16.911Z,99.90
2019-01-09T09:33:47.530Z,99.90
2019-01-09T09:36:18.154Z,99.90
2019-01-09T09:38:48.760Z,99.90
2019-01-09T09:41:19.366Z,99.90
2019-01-09T09:43:49.962Z,99.90
2019-01-09T09:46:20.501Z,99.90
2019-01-09T09:48:51.086Z,99.90
2019-01-09T09:51:21.640Z,99.90
2019-01-09T09:53:52.281Z,99.90
2019-01-09T09:56:22.812Z,99.90
2019-01-09T09:58:53.368Z,99.90
2019-01-09T10:01:24.060Z,99.90
2019-01-09T10:03:54.631Z,99.90
2019-01-09T10:06:25.307Z,99.90
2019-01-09T10:08:55.923Z,99.90
2019-01-09T10:11:26.529Z,99.90
2019-01-09T10:13:57.137Z,99.90
2019-01-09T10:16:27.773Z,99.90
2019-01-09T10:18:58.327Z,99.90
2019-01-09T10:21:28.984Z,99.90
2019-01-09T10:23:59.591Z,99.90
2019-01-09T10:26:30.205Z,99.90
2019-01-09T10:29:01.923Z,99.90
2019-01-09T10:31:32.578Z,99.90
2019-01-09T10:34:03.134Z,99.90
2019-01-09T10:36:33.771Z,99.90
2019-01-09T10:39:07.188Z,99.90
2019-01-09T10:41:37.689Z,99.90
2019-01-09T10:44:08.159Z,99.90
2019-01-09T10:46:38.702Z,99.90
2019-01-09T10:49:09.296Z,96.40
2019-01-09T10:51:39.907Z,95.90
2019-01-09T10:54:10.511Z,95.20
2019-01-09T10:56:41.152Z,96.50
2019-01-09T10:59:11.646Z,94.60
2019-01-09T11:01:42.273Z,94.00
2019-01-09T11:04:12.862Z,91.90
2019-01-09T11:06:43.414Z,84.30
2019-01-09T11:09:13.910Z,84.70
2019-01-09T11:11:44.546Z,85.60
2019-01-09T11:14:15.092Z,83.50
2019-01-09T11:16:45.700Z,84.70
2019-01-09T11:19:16.304Z,82.30
2019-01-09T11:21:46.859Z,84.40
2019-01-09T11:24:17.476Z,82.90
2019-01-09T11:26:48.104Z,81.70
2019-01-09T11:29:18.772Z,82.40
2019-01-09T11:31:49.286Z,82.90
2019-01-09T11:34:19.801Z,83.10
2019-01-09T11:36:50.420Z,82.40
2019-01-09T11:39:21.163Z,83.60
2019-01-09T11:41:51.719Z,80.80
2019-01-09T11:44:22.325Z,83.10
2019-01-09T11:46:52.961Z,81.80
2019-01-09T11:49:23.578Z,81.30
2019-01-09T11:51:54.064Z,80.50
2019-01-09T11:54:24.590Z,80.60
2019-01-09T11:56:55.086Z,83.50
2019-01-09T11:59:25.622Z,83.10
2019-01-09T12:01:56.128Z,84.10
2019-01-09T12:04:26.707Z,83.10
2019-01-09T12:06:57.300Z,82.40
2019-01-09T12:09:27.856Z,81.20
2019-01-09T12:11:59.304Z,81.70
2019-01-09T12:14:29.841Z,82.70
2019-01-09T12:17:00.334Z,84.00
2019-01-09T12:19:31.021Z,84.10
2019-01-09T12:22:01.608Z,84.10
2019-01-09T12:24:32.233Z,82.70
2019-01-09T12:27:02.830Z,81.60
2019-01-09T12:29:33.437Z,82.00
2019-01-09T12:32:04.004Z,82.00
2019-01-09T12:34:35.718Z,82.90
2019-01-09T12:37:06.204Z,83.30
2019-01-09T12:39:36.789Z,83.90
2019-01-09T12:42:07.277Z,84.20
2019-01-09T12:44:37.822Z,81.90
2019-01-09T12:47:08.439Z,84.70
2019-01-09T12:49:39.018Z,81.40
2019-01-09T12:52:09.601Z,80.10
2019-01-09T12:54:40.277Z,79.60
2019-01-09T12:57:10.813Z,80.30
2019-01-09T12:59:41.429Z,77.70
2019-01-09T13:02:12.075Z,79.30
2019-01-09T13:04:46.844Z,78.90
2019-01-09T13:07:18.899Z,78.70
2019-01-09T13:09:55.717Z,78.30
2019-01-09T13:12:26.323Z,75.60
2019-01-09T13:14:56.959Z,76.40
2019-01-09T13:17:27.525Z,78.90
2019-01-09T13:19:58.061Z,77.10
2019-01-09T13:22:28.558Z,78.00
2019-01-09T13:24:59.131Z,79.00
2019-01-09T13:27:29.641Z,79.30
2019-01-09T13:30:00.299Z,80.50
2019-01-09T13:32:30.862Z,80.70
2019-01-09T13:35:01.535Z,80.50
2019-01-09T13:37:32.165Z,80.20
2019-01-09T13:40:02.746Z,82.70
2019-01-09T13:42:33.258Z,82.60
2019-01-09T13:45:05.593Z,81.70
2019-01-09T13:47:36.089Z,83.80
2019-01-09T13:50:07.216Z,82.20
2019-01-09T13:52:37.643Z,81.50
2019-01-09T13:55:11.860Z,83.20
2019-01-09T13:57:42.415Z,84.60
2019-01-09T14:00:15.492Z,83.80
2019-01-09T14:02:45.960Z,84.60
2019-01-09T14:05:16.474Z,84.60
2019-01-09T14:07:47.792Z,84.80
2019-01-09T14:10:28.427Z,86.30
2019-01-09T14:12:59.006Z,87.70
2019-01-09T14:15:29.512Z,87.80
2019-01-09T14:18:00.079Z,88.60
2019-01-09T14:20:30.735Z,88.30
2019-01-09T14:23:01.152Z,89.10
2019-01-09T14:25:31.569Z,88.30
2019-01-09T14:28:02.115Z,87.40
2019-01-09T14:30:32.749Z,86.90
2019-01-09T14:33:03.316Z,86.40
2019-01-09T14:35:33.971Z,86.60
2019-01-09T14:38:04.478Z,84.20
2019-01-09T14:40:37.238Z,84.90
2019-01-09T14:43:08.433Z,84.50
2019-01-09T14:45:43.617Z,83.70
2019-01-09T14:48:14.566Z,82.40
2019-01-09T14:50:45.270Z,81.50
2019-01-09T14:53:16.160Z,80.70
2019-01-09T14:55:47.630Z,81.40
2019-01-09T14:58:18.591Z,80.90
2019-01-09T15:00:49.319Z,79.90
2019-01-09T15:03:20.222Z,81.30
2019-01-09T15:06:10.692Z,80.40
2019-01-09T15:08:41.243Z,80.60
2019-01-09T15:11:11.627Z,80.70
2019-01-09T15:13:42.152Z,80.90
2019-01-09T15:16:13.458Z,78.60
2019-01-09T15:18:44.085Z,77.90
2019-01-09T15:21:14.641Z,77.10
2019-01-09T15:23:45.187Z,78.60
2019-01-09T15:26:15.753Z,78.60
2019-01-09T15:28:46.366Z,79.40
2019-01-09T15:31:16.976Z,77.00
2019-01-09T15:33:47.572Z,77.80
2019-01-09T15:36:18.069Z,77.20
2019-01-09T15:38:48.627Z,77.50
2019-01-09T15:41:19.161Z,78.50
2019-01-09T15:43:49.679Z,80.00
2019-01-09T15:46:20.104Z,79.50
2019-01-09T15:48:50.621Z,79.90
2019-01-09T15:51:21.165Z,79.00
2019-01-09T15:53:51.792Z,78.90
2019-01-09T15:56:22.321Z,80.00
2019-01-09T15:58:52.914Z,79.90
2019-01-09T16:01:23.480Z,81.00
2019-01-09T16:03:54.066Z,80.50
2019-01-09T16:06:24.593Z,81.00
2019-01-09T16:08:55.239Z,80.70
2019-01-09T16:11:25.847Z,81.50
2019-01-09T16:13:56.492Z,82.20
2019-01-09T16:16:26.938Z,83.00
2019-01-09T16:18:57.546Z,82.50
2019-01-09T16:21:40.174Z,81.60
2019-01-09T16:24:12.670Z,83.00
2019-01-09T16:26:43.091Z,83.20
2019-01-09T16:29:13.712Z,83.40
2019-01-09T16:31:44.329Z,83.70
2019-01-09T16:34:14.885Z,82.70
2019-01-09T16:36:45.381Z,82.40
2019-01-09T16:39:17.449Z,82.90
2019-01-09T16:41:48.164Z,83.90
2019-01-09T16:44:18.690Z,81.40
2019-01-09T16:46:49.108Z,82.00
2019-01-09T16:49:27.644Z,80.80
2019-01-09T16:51:51.839Z,81.60
2019-01-09T16:54:22.598Z,82.70
2019-01-09T16:56:53.253Z,82.30
2019-01-09T16:59:23.850Z,82.40
2019-01-09T17:01:54.396Z,82.40
2019-01-09T17:04:24.966Z,83.50
2019-01-09T17:06:55.527Z,83.20
2019-01-09T17:09:26.127Z,82.30
2019-01-09T17:11:56.602Z,82.10
2019-01-09T17:14:27.046Z,82.60
2019-01-09T17:16:57.852Z,82.00
2019-01-09T17:19:28.429Z,82.20
2019-01-09T17:21:59.026Z,82.60
2019-01-09T17:24:29.638Z,83.10
2019-01-09T17:27:00.259Z,83.50
2019-01-09T17:29:30.744Z,83.90
2019-01-09T17:32:01.260Z,83.90
2019-01-09T17:34:31.737Z,84.30
2019-01-09T17:37:02.333Z,84.30
2019-01-09T17:39:33.224Z,83.60
2019-01-09T17:42:03.707Z,84.40
2019-01-09T17:44:34.281Z,85.10
2019-01-09T17:47:04.877Z,85.50
2019-01-09T17:49:35.814Z,84.90
2019-01-09T17:52:06.391Z,85.30
2019-01-09T17:54:36.958Z,84.60
2019-01-09T17:57:07.646Z,83.50
2019-01-09T17:59:38.210Z,84.20
2019-01-09T18:02:08.882Z,85.00
2019-01-09T18:04:39.562Z,84.90
2019-01-09T18:07:10.549Z,85.20
2019-01-09T18:09:41.095Z,85.40
2019-01-09T18:12:11.572Z,83.40
2019-01-09T18:14:41.987Z,83.90
2019-01-09T18:17:12.534Z,84.20
2019-01-09T18:19:43.091Z,85.60
2019-01-09T18:22:13.796Z,85.20
2019-01-09T18:24:44.372Z,85.80
2019-01-09T18:27:14.889Z,85.60
2019-01-09T18:29:45.515Z,85.50
2019-01-09T18:32:41.844Z,85.80
2019-01-09T18:35:20.966Z,86.70
2019-01-09T18:38:15.498Z,88.40
2019-01-09T18:41:13.001Z,87.40
2019-01-09T18:44:06.802Z,87.60
2019-01-09T18:47:10.727Z,85.70
2019-01-09T18:50:34.786Z,86.20
2019-01-09T18:53:15.025Z,84.40
2019-01-09T18:55:45.581Z,84.60
2019-01-09T18:58:16.170Z,85.20
2019-01-09T19:00:46.643Z,85.00
2019-01-09T19:03:17.300Z,84.60
2019-01-09T19:05:47.787Z,84.20
2019-01-09T19:08:18.222Z,84.10
2019-01-09T19:10:48.798Z,84.20
2019-01-09T19:13:19.774Z,83.30
2019-01-09T19:15:50.448Z,84.00
2019-01-09T19:18:21.627Z,84.30
2019-01-09T19:20:52.827Z,84.10
2019-01-09T19:23:23.563Z,84.10
2019-01-09T19:25:54.326Z,83.30
2019-01-09T19:28:24.933Z,83.60
2019-01-09T19:30:55.449Z,83.30
2019-01-09T19:33:26.055Z,82.10
2019-01-09T19:35:56.654Z,83.70
2019-01-09T19:38:27.298Z,84.30
2019-01-09T19:40:59.701Z,83.60
2019-01-09T19:43:30.091Z,84.70
2019-01-09T19:46:00.727Z,84.10
2019-01-09T19:48:31.314Z,84.10
2019-01-09T19:51:01.921Z,84.50
2019-01-09T19:53:32.618Z,85.30
2019-01-09T19:56:03.232Z,84.60
2019-01-09T19:58:33.811Z,84.50
2019-01-09T20:01:04.425Z,84.50
2019-01-09T20:03:34.932Z,84.40
2019-01-09T20:06:05.679Z,84.60
2019-01-09T20:08:36.315Z,84.20
2019-01-09T20:11:06.947Z,83.80
2019-01-09T20:13:37.587Z,84.40
2019-01-09T20:16:08.164Z,84.30
2019-01-09T20:18:38.790Z,83.90
2019-01-09T20:21:09.413Z,85.50
2019-01-09T20:23:39.982Z,84.50
2019-01-09T20:26:10.638Z,84.60
2019-01-09T20:28:41.238Z,85.20
2019-01-09T20:31:11.790Z,86.00
2019-01-09T20:33:42.323Z,86.30
2019-01-09T20:36:14.297Z,86.30
2019-01-09T20:38:45.020Z,86.70
2019-01-09T20:41:15.581Z,86.90
2019-01-09T20:43:46.101Z,86.30
2019-01-09T20:46:16.687Z,87.40
2019-01-09T20:48:47.256Z,87.40
2019-01-09T20:51:17.912Z,86.20
2019-01-09T20:53:48.396Z,86.60
2019-01-09T20:56:18.972Z,87.50
2019-01-09T20:58:49.514Z,87.10
2019-01-09T21:01:20.151Z,87.50
2019-01-09T21:03:50.694Z,87.20
2019-01-09T21:06:21.232Z,88.60
2019-01-09T21:08:59.529Z,87.70
2019-01-09T21:11:24.021Z,87.90
2019-01-09T21:13:54.689Z,88.40
2019-01-09T21:16:25.232Z,88.10
2019-01-09T21:18:55.994Z,88.30
2019-01-09T21:21:26.674Z,88.30
2019-01-09T21:23:57.362Z,87.90
2019-01-09T21:26:27.847Z,88.70
2019-01-09T21:28:58.415Z,87.80
2019-01-09T21:31:29.079Z,88.20
2019-01-09T21:33:59.615Z,89.00
2019-01-09T21:36:30.222Z,88.70
2019-01-09T21:39:00.838Z,89.30
2019-01-09T21:41:31.326Z,89.30
2019-01-09T21:44:01.891Z,89.70
2019-01-09T21:46:33.468Z,89.30
2019-01-09T21:49:04.294Z,89.40
2019-01-09T21:51:34.949Z,91.00
2019-01-09T21:54:05.576Z,90.90
2019-01-09T21:56:36.093Z,90.60
2019-01-09T21:59:06.738Z,91.60
2019-01-09T22:01:37.406Z,91.30
2019-01-09T22:04:07.773Z,91.40
2019-01-09T22:06:38.347Z,91.30
2019-01-09T22:09:08.903Z,91.30
2019-01-09T22:11:40.542Z,91.60
2019-01-09T22:14:11.246Z,91.40
2019-01-09T22:17:01.007Z,90.50
2019-01-09T22:19:31.654Z,90.90
2019-01-09T22:22:02.310Z,90.70
2019-01-09T22:24:32.936Z,91.40
2019-01-09T22:27:03.492Z,91.00
2019-01-09T22:29:34.079Z,90.30
2019-01-09T22:32:04.586Z,90.60
2019-01-09T22:34:35.221Z,90.50
2019-01-09T22:37:05.758Z,90.50
2019-01-09T22:39:36.394Z,90.80
2019-01-09T22:42:11.855Z,90.50
2019-01-09T22:44:39.278Z,90.30
2019-01-09T22:47:09.794Z,90.40
2019-01-09T22:49:40.331Z,90.30
2019-01-09T22:52:10.866Z,90.50
2019-01-09T22:54:41.504Z,90.10
2019-01-09T22:57:12.109Z,90.50
2019-01-09T22:59:42.695Z,90.30
2019-01-09T23:02:13.613Z,91.00
2019-01-09T23:04:44.268Z,90.90
2019-01-09T23:07:14.846Z,90.50
2019-01-09T23:09:46.482Z,89.70
2019-01-09T23:12:21.382Z,89.80
2019-01-09T23:14:49.085Z,89.80
2019-01-09T23:17:19.580Z,90.00
2019-01-09T23:19:50.077Z,90.20
2019-01-09T23:22:20.673Z,89.60
2019-01-09T23:24:51.309Z,90.00
2019-01-09T23:27:21.895Z,89.90
2019-01-09T23:29:52.483Z,89.90
2019-01-09T23:32:23.068Z,89.90
2019-01-09T23:34:53.594Z,90.00
2019-01-09T23:37:24.171Z,90.00
2019-01-09T23:39:54.900Z,90.70
2019-01-09T23:42:30.290Z,91.50
2019-01-09T23:44:57.672Z,91.90
2019-01-09T23:47:28.199Z,91.70
2019-01-09T23:49:58.775Z,91.30
2019-01-09T23:52:29.279Z,90.50
2019-01-09T23:54:59.928Z,90.60
2019-01-09T23:57:30.562Z,91.40
